createdAt,value
2023-03-13T00:01:28.651Z,25.67
2023-03-13T00:03:56.311Z,25.27
2023-03-13T00:06:26.410Z,24.97
2023-03-13T00:08:55.685Z,26.83
2023-03-13T00:11:23.234Z,22.40
2023-03-13T00:13:57.994Z,25.07
2023-03-13T00:16:26.162Z,23.67
2023-03-13T00:18:54.768Z,23.90
2023-03-13T00:21:24.746Z,25.93
2023-03-13T00:23:52.814Z,26.30
2023-03-13T00:26:25.297Z,26.33
2023-03-13T00:28:53.303Z,25.07
2023-03-13T00:31:23.652Z,24.50
2023-03-13T00:33:53.527Z,28.83
2023-03-13T00:36:24.224Z,23.93
2023-03-13T00:38:52.892Z,21.13
2023-03-13T00:41:25.934Z,22.53
2023-03-13T00:43:54.099Z,21.60
2023-03-13T00:46:24.296Z,19.10
2023-03-13T00:48:53.065Z,19.30
2023-03-13T00:51:22.378Z,16.00
2023-03-13T00:53:49.748Z,23.53
2023-03-13T00:56:19.245Z,19.07
2023-03-13T00:58:48.314Z,18.13
2023-03-13T01:01:25.034Z,18.60
2023-03-13T01:03:55.370Z,19.17
2023-03-13T01:06:26.447Z,16.77
2023-03-13T01:08:54.259Z,15.07
2023-03-13T01:11:24.873Z,14.17
2023-03-13T01:13:55.855Z,12.63
2023-03-13T01:16:24.269Z,15.07
2023-03-13T01:18:54.092Z,15.93
2023-03-13T01:21:23.176Z,14.43
2023-03-13T01:23:52.786Z,13.37
2023-03-13T01:26:21.830Z,13.20
2023-03-13T01:28:49.547Z,12.93
2023-03-13T01:31:21.878Z,14.30
2023-03-13T01:33:51.037Z,14.10
2023-03-13T01:36:19.190Z,13.50
2023-03-13T01:38:51.199Z,18.17
2023-03-13T01:41:20.254Z,17.67
2023-03-13T01:43:48.128Z,17.90
2023-03-13T01:46:18.045Z,17.27
2023-03-13T01:49:23.542Z,18.27
2023-03-13T01:52:14.410Z,15.67
2023-03-13T01:54:51.698Z,16.17
2023-03-13T01:57:31.238Z,16.73
2023-03-13T02:00:27.277Z,21.07
2023-03-13T02:02:58.923Z,18.43
2023-03-13T02:05:29.017Z,17.07
2023-03-13T02:08:09.476Z,20.27
2023-03-13T02:10:41.650Z,20.13
2023-03-13T02:13:14.208Z,24.87
2023-03-13T02:15:41.709Z,19.63
2023-03-13T02:18:11.173Z,24.97
2023-03-13T02:20:40.599Z,21.43
2023-03-13T02:23:20.488Z,29.27
2023-03-13T02:25:51.204Z,25.80
2023-03-13T02:28:33.463Z,25.27
2023-03-13T02:31:02.083Z,27.67
2023-03-13T02:33:35.801Z,33.80
2023-03-13T02:36:04.996Z,30.13
2023-03-13T02:38:40.231Z,29.40
2023-03-13T02:41:08.770Z,30.40
2023-03-13T02:43:38.362Z,32.13
2023-03-13T02:46:19.901Z,31.97
2023-03-13T02:48:57.130Z,32.40
2023-03-13T02:51:31.887Z,32.70
2023-03-13T02:54:08.587Z,34.43
2023-03-13T02:56:37.806Z,36.40
2023-03-13T02:59:06.975Z,38.70
2023-03-13T03:01:36.155Z,38.63
2023-03-13T03:04:03.979Z,40.43
2023-03-13T03:06:31.744Z,36.83
2023-03-13T03:08:59.825Z,37.67
2023-03-13T03:11:29.553Z,42.43
2023-03-13T03:14:02.415Z,41.37
2023-03-13T03:16:34.722Z,44.97
2023-03-13T03:19:02.751Z,42.70
2023-03-13T03:21:30.296Z,44.73
2023-03-13T03:23:57.895Z,42.07
2023-03-13T03:26:25.424Z,43.00
2023-03-13T03:28:53.353Z,48.53
2023-03-13T03:31:20.903Z,43.67
2023-03-13T03:33:48.648Z,45.70
2023-03-13T03:36:20.831Z,44.83
2023-03-13T03:38:49.325Z,45.80
2023-03-13T03:41:19.645Z,52.93
2023-03-13T03:43:48.154Z,49.70
2023-03-13T03:46:21.899Z,63.87
2023-03-13T03:48:49.426Z,53.43
2023-03-13T03:51:16.718Z,52.97
2023-03-13T03:53:49.218Z,52.10
2023-03-13T03:56:16.732Z,51.27
2023-03-13T03:58:49.839Z,51.37
2023-03-13T04:01:35.591Z,49.70
2023-03-13T04:04:05.134Z,60.97
2023-03-13T04:06:32.597Z,50.00
2023-03-13T04:09:00.565Z,54.33
2023-03-13T04:11:29.916Z,55.17
2023-03-13T04:13:57.958Z,50.77
2023-03-13T04:16:26.240Z,53.33
2023-03-13T04:18:55.582Z,54.07
2023-03-13T04:21:25.223Z,68.33
2023-03-13T04:24:15.272Z,71.20
2023-03-13T04:26:44.228Z,63.87
2023-03-13T04:29:12.100Z,71.17
2023-03-13T04:31:58.454Z,71.80
2023-03-13T04:34:54.571Z,73.83
2023-03-13T04:37:52.710Z,75.63
2023-03-13T04:40:49.368Z,75.20
2023-03-13T04:43:35.466Z,75.10
2023-03-13T04:46:29.858Z,87.73
2023-03-13T04:49:23.170Z,80.27
2023-03-13T04:52:13.976Z,75.23
2023-03-13T04:54:51.252Z,91.37
2023-03-13T04:57:44.016Z,76.57
2023-03-13T05:00:24.275Z,89.67
2023-03-13T05:03:08.913Z,83.70
2023-03-13T05:05:54.618Z,85.63
2023-03-13T05:08:40.737Z,88.17
2023-03-13T05:11:43.246Z,85.23
2023-03-13T05:14:30.988Z,80.43
2023-03-13T05:17:27.239Z,82.90
2023-03-13T05:20:15.111Z,87.37
2023-03-13T05:22:59.608Z,92.67
2023-03-13T05:25:49.064Z,83.53
2023-03-13T05:28:44.781Z,78.23
2023-03-13T05:31:50.580Z,90.00
2023-03-13T05:34:30.240Z,86.30
2023-03-13T05:37:20.886Z,92.67
2023-03-13T05:40:06.399Z,89.30
2023-03-13T05:42:55.180Z,84.57
2023-03-13T05:45:32.638Z,89.53
2023-03-13T05:48:22.983Z,86.33
2023-03-13T05:51:16.508Z,86.07
2023-03-13T05:54:10.161Z,86.83
2023-03-13T05:56:59.001Z,81.20
2023-03-13T05:59:38.531Z,80.77
2023-03-13T06:02:24.561Z,74.77
2023-03-13T06:04:52.649Z,76.93
2023-03-13T06:07:20.043Z,77.97
2023-03-13T06:09:48.636Z,73.90
2023-03-13T06:12:15.863Z,69.77
2023-03-13T06:14:43.304Z,70.87
2023-03-13T06:17:16.267Z,64.73
2023-03-13T06:19:43.786Z,66.00
2023-03-13T06:22:11.099Z,64.20
2023-03-13T06:24:38.541Z,65.57
2023-03-13T06:27:07.188Z,58.70
2023-03-13T06:29:34.711Z,63.67
2023-03-13T06:32:02.031Z,60.83
2023-03-13T06:34:29.769Z,61.83
2023-03-13T06:36:58.800Z,59.07
2023-03-13T06:39:26.494Z,59.83
2023-03-13T06:41:53.698Z,58.23
2023-03-13T06:44:21.265Z,52.00
2023-03-13T06:46:48.620Z,75.80
2023-03-13T06:49:16.142Z,61.33
2023-03-13T06:51:43.471Z,54.07
2023-03-13T06:54:11.027Z,56.47
2023-03-13T06:56:38.255Z,51.10
2023-03-13T06:59:05.734Z,52.63
2023-03-13T07:01:33.048Z,56.07
2023-03-13T07:04:00.599Z,48.77
2023-03-13T07:06:28.117Z,41.90
2023-03-13T07:08:55.939Z,37.50
2023-03-13T07:11:23.327Z,37.30
2023-03-13T07:13:50.981Z,32.13
2023-03-13T07:16:18.320Z,36.27
2023-03-13T07:18:46.078Z,29.53
2023-03-13T07:21:14.365Z,25.37
2023-03-13T07:23:42.648Z,25.90
2023-03-13T07:26:16.102Z,23.23
2023-03-13T07:28:44.038Z,28.77
2023-03-13T07:31:21.015Z,28.60
2023-03-13T07:33:48.903Z,24.67
2023-03-13T07:36:16.495Z,26.97
2023-03-13T07:38:47.620Z,26.00
2023-03-13T07:41:15.435Z,27.90
2023-03-13T07:43:43.236Z,27.97
2023-03-13T07:46:14.443Z,29.10
2023-03-13T07:48:43.374Z,29.40
2023-03-13T07:51:19.633Z,26.30
2023-03-13T07:53:48.498Z,26.93
2023-03-13T07:56:18.355Z,31.50
2023-03-13T07:58:46.245Z,31.33
2023-03-13T08:01:17.608Z,25.37
2023-03-13T08:03:46.440Z,24.63
2023-03-13T08:06:17.072Z,30.73
2023-03-13T08:08:45.616Z,25.43
2023-03-13T08:11:19.023Z,30.80
2023-03-13T08:13:47.303Z,26.63
2023-03-13T08:16:17.371Z,24.13
2023-03-13T08:18:47.628Z,25.00
2023-03-13T08:21:17.898Z,23.00
2023-03-13T08:23:46.021Z,27.93
2023-03-13T08:26:16.257Z,20.67
2023-03-13T08:28:45.791Z,20.00
2023-03-13T08:31:19.397Z,21.37
2023-03-13T08:33:49.041Z,22.40
2023-03-13T08:36:23.513Z,21.47
2023-03-13T08:38:53.552Z,25.70
2023-03-13T08:41:24.109Z,20.00
2023-03-13T08:43:56.317Z,28.83
2023-03-13T08:46:26.334Z,25.10
2023-03-13T08:48:55.361Z,22.73
2023-03-13T08:51:24.823Z,24.93
2023-03-13T08:53:53.178Z,27.37
2023-03-13T08:56:22.526Z,23.47
2023-03-13T08:58:55.260Z,19.67
2023-03-13T09:01:28.202Z,21.00
2023-03-13T09:03:57.669Z,28.23
2023-03-13T09:06:25.335Z,22.33
2023-03-13T09:08:52.965Z,25.03
2023-03-13T09:11:21.402Z,20.67
2023-03-13T09:13:51.341Z,24.80
2023-03-13T09:16:21.407Z,29.80
2023-03-13T09:18:50.357Z,26.03
2023-03-13T09:21:32.413Z,29.07
2023-03-13T09:24:00.419Z,31.27
2023-03-13T09:26:28.559Z,27.87
2023-03-13T09:28:56.213Z,28.83
2023-03-13T09:31:30.532Z,35.27
2023-03-13T09:33:59.501Z,31.07
2023-03-13T09:36:28.152Z,37.50
2023-03-13T09:38:58.447Z,33.20
2023-03-13T09:41:34.991Z,37.00
2023-03-13T09:44:02.568Z,27.70
2023-03-13T09:46:35.816Z,30.90
2023-03-13T09:49:11.932Z,28.23
2023-03-13T09:51:43.755Z,25.53
2023-03-13T09:54:33.231Z,35.37
2023-03-13T09:57:10.492Z,34.37
2023-03-13T09:59:50.253Z,36.50
2023-03-13T10:02:25.302Z,23.90
2023-03-13T10:04:59.907Z,28.93
2023-03-13T10:07:27.124Z,37.53
2023-03-13T10:09:54.743Z,33.17
2023-03-13T10:12:27.555Z,31.83
2023-03-13T10:15:28.449Z,34.63
2023-03-13T10:17:57.660Z,30.70
2023-03-13T10:20:35.062Z,26.60
2023-03-13T10:23:20.511Z,30.90
2023-03-13T10:25:48.109Z,35.97
2023-03-13T10:28:19.923Z,25.77
2023-03-13T10:30:54.735Z,24.70
2023-03-13T10:33:27.620Z,24.93
2023-03-13T10:36:03.992Z,28.57
2023-03-13T10:38:34.190Z,25.73
2023-03-13T10:41:10.678Z,23.27
2023-03-13T10:43:51.418Z,22.00
2023-03-13T10:46:26.953Z,22.57
2023-03-13T10:48:56.084Z,31.83
2023-03-13T10:51:25.709Z,24.63
2023-03-13T10:53:52.935Z,21.40
2023-03-13T10:56:30.372Z,30.57
2023-03-13T10:58:57.682Z,31.93
2023-03-13T11:01:34.084Z,30.40
2023-03-13T11:04:20.465Z,29.40
2023-03-13T11:06:54.756Z,34.40
2023-03-13T11:09:22.064Z,31.57
2023-03-13T11:11:54.886Z,32.07
2023-03-13T11:14:24.455Z,46.20
2023-03-13T11:16:55.829Z,33.00
2023-03-13T11:19:26.023Z,29.07
2023-03-13T11:21:56.522Z,32.00
2023-03-13T11:24:55.363Z,31.00
2023-03-13T11:28:00.429Z,36.90
2023-03-13T11:30:47.648Z,40.10
2023-03-13T11:33:41.015Z,39.70
2023-03-13T11:36:46.676Z,30.97
2023-03-13T11:39:32.287Z,48.33
2023-03-13T11:42:21.075Z,44.60
2023-03-13T11:45:07.003Z,38.97
2023-03-13T11:48:12.266Z,38.33
2023-03-13T11:50:48.843Z,38.67
2023-03-13T11:53:43.373Z,39.37
2023-03-13T11:56:29.316Z,42.43
2023-03-13T11:59:08.484Z,38.67
2023-03-13T12:01:41.658Z,44.20
2023-03-13T12:04:20.837Z,54.70
2023-03-13T12:07:20.591Z,40.53
2023-03-13T12:09:55.951Z,54.47
2023-03-13T12:13:10.974Z,44.53
2023-03-13T12:15:43.511Z,45.83
2023-03-13T12:18:27.653Z,38.67
2023-03-13T12:20:56.083Z,49.90
2023-03-13T12:23:46.775Z,45.40
2023-03-13T12:26:17.387Z,46.60
2023-03-13T12:28:52.249Z,40.57
2023-03-13T12:31:45.387Z,48.90
2023-03-13T12:34:17.780Z,53.30
2023-03-13T12:37:12.276Z,48.20
2023-03-13T12:39:50.155Z,46.20
2023-03-13T12:42:40.398Z,48.13
2023-03-13T12:45:12.563Z,50.93
2023-03-13T12:48:08.297Z,48.70
2023-03-13T12:51:01.543Z,39.93
2023-03-13T12:53:47.675Z,51.43
2023-03-13T12:56:55.947Z,41.73
2023-03-13T12:59:47.702Z,43.40
2023-03-13T13:02:27.972Z,44.77
2023-03-13T13:04:57.829Z,38.77
2023-03-13T13:07:35.581Z,39.47
2023-03-13T13:10:11.687Z,41.67
2023-03-13T13:12:41.985Z,37.20
2023-03-13T13:15:16.642Z,42.23
2023-03-13T13:17:59.342Z,35.37
2023-03-13T13:20:30.463Z,41.83
2023-03-13T13:23:26.966Z,28.97
2023-03-13T13:25:56.724Z,34.77
2023-03-13T13:28:32.374Z,34.10
2023-03-13T13:30:59.712Z,36.13
2023-03-13T13:33:31.060Z,37.13
2023-03-13T13:36:21.634Z,35.97
2023-03-13T13:38:49.247Z,31.03
2023-03-13T13:41:16.460Z,32.97
2023-03-13T13:43:49.259Z,34.77
2023-03-13T13:46:25.207Z,26.40
2023-03-13T13:49:17.242Z,36.43
2023-03-13T13:52:02.759Z,27.10
2023-03-13T13:54:42.579Z,21.03
2023-03-13T13:57:16.858Z,33.87
2023-03-13T13:59:48.132Z,32.03
2023-03-13T14:02:27.734Z,20.30
2023-03-13T14:05:04.298Z,18.37
2023-03-13T14:07:52.197Z,20.17
2023-03-13T14:10:32.283Z,19.20
2023-03-13T14:13:01.553Z,17.40
2023-03-13T14:15:31.065Z,13.93
2023-03-13T14:18:00.618Z,17.63
2023-03-13T14:20:58.925Z,17.97
2023-03-13T14:23:44.378Z,20.10
2023-03-13T14:26:17.964Z,19.23
2023-03-13T14:29:00.464Z,15.43
2023-03-13T14:31:28.403Z,22.67
2023-03-13T14:33:58.376Z,16.40
2023-03-13T14:36:27.168Z,19.27
2023-03-13T14:38:56.970Z,20.37
2023-03-13T14:41:42.705Z,17.10
2023-03-13T14:44:29.065Z,20.07
2023-03-13T14:47:00.605Z,20.13
2023-03-13T14:49:31.740Z,21.53
2023-03-13T14:52:06.841Z,17.07
2023-03-13T14:54:36.702Z,22.43
2023-03-13T14:57:10.324Z,19.80
2023-03-13T14:59:37.554Z,17.27
2023-03-13T15:02:19.563Z,18.40
2023-03-13T15:05:00.124Z,25.53
2023-03-13T15:07:36.345Z,27.63
2023-03-13T15:10:24.325Z,33.43
2023-03-13T15:12:52.564Z,19.90
2023-03-13T15:15:20.151Z,25.37
2023-03-13T15:17:47.964Z,23.50
2023-03-13T15:20:16.732Z,27.23
2023-03-13T15:22:46.636Z,22.73
2023-03-13T15:25:22.368Z,22.20
2023-03-13T15:27:50.634Z,24.53
2023-03-13T15:30:20.834Z,26.40
2023-03-13T15:32:49.086Z,17.77
2023-03-13T15:35:30.038Z,20.87
2023-03-13T15:38:02.044Z,22.87
2023-03-13T15:40:31.050Z,25.13
2023-03-13T15:42:59.676Z,21.47
2023-03-13T15:45:27.290Z,26.00
2023-03-13T15:47:55.152Z,20.37
2023-03-13T15:50:29.592Z,20.73
2023-03-13T15:53:01.305Z,25.53
2023-03-13T15:55:29.906Z,23.47
2023-03-13T15:57:57.764Z,25.00
2023-03-13T16:00:27.163Z,24.97
2023-03-13T16:02:54.849Z,22.57
2023-03-13T16:05:22.419Z,28.13
2023-03-13T16:07:50.154Z,28.53
2023-03-13T16:10:25.542Z,25.87
2023-03-13T16:12:56.296Z,17.13
2023-03-13T16:15:23.990Z,18.73
2023-03-13T16:17:51.547Z,15.37
2023-03-13T16:20:21.862Z,23.10
2023-03-13T16:22:53.021Z,19.20
2023-03-13T16:25:21.917Z,23.63
2023-03-13T16:27:49.931Z,20.60
2023-03-13T16:30:21.631Z,21.80
2023-03-13T16:32:49.344Z,23.50
2023-03-13T16:35:17.603Z,25.70
2023-03-13T16:37:45.228Z,15.37
2023-03-13T16:40:17.903Z,21.37
2023-03-13T16:42:45.824Z,24.20
2023-03-13T16:45:14.623Z,20.53
2023-03-13T16:47:43.973Z,17.70
2023-03-13T16:50:28.769Z,20.07
2023-03-13T16:52:56.399Z,32.27
2023-03-13T16:55:28.441Z,27.07
2023-03-13T16:57:58.075Z,17.87
2023-03-13T17:00:28.012Z,21.63
2023-03-13T17:02:58.407Z,32.40
2023-03-13T17:05:27.377Z,28.53
2023-03-13T17:07:55.591Z,26.47
2023-03-13T17:10:33.889Z,17.57
2023-03-13T17:13:01.721Z,17.63
2023-03-13T17:15:30.004Z,12.40
2023-03-13T17:17:57.957Z,15.70
2023-03-13T17:20:28.725Z,17.23
2023-03-13T17:22:57.054Z,17.67
2023-03-13T17:25:26.862Z,16.63
2023-03-13T17:27:54.616Z,15.33
2023-03-13T17:30:30.824Z,18.43
2023-03-13T17:33:01.215Z,20.00
2023-03-13T17:35:29.335Z,24.27
2023-03-13T17:37:57.484Z,20.33
2023-03-13T17:40:28.087Z,21.30
2023-03-13T17:42:56.494Z,21.50
2023-03-13T17:45:25.111Z,21.00
2023-03-13T17:47:54.914Z,22.00
2023-03-13T17:50:27.877Z,21.10
2023-03-13T17:52:56.839Z,20.60
2023-03-13T17:55:25.268Z,16.83
2023-03-13T17:57:54.003Z,17.70
2023-03-13T18:00:32.686Z,16.17
2023-03-13T18:03:01.227Z,20.80
2023-03-13T18:05:29.074Z,17.83
2023-03-13T18:07:57.670Z,18.27
2023-03-13T18:10:28.152Z,17.77
2023-03-13T18:12:57.343Z,18.90
2023-03-13T18:15:26.395Z,20.00
2023-03-13T18:17:54.940Z,13.00
2023-03-13T18:20:30.728Z,16.63
2023-03-13T18:23:00.800Z,18.70
2023-03-13T18:25:29.668Z,18.50
2023-03-13T18:27:58.446Z,16.30
2023-03-13T18:30:27.749Z,15.17
2023-03-13T18:32:55.596Z,17.40
2023-03-13T18:35:23.044Z,16.27
2023-03-13T18:37:50.686Z,19.60
2023-03-13T18:40:24.277Z,16.23
2023-03-13T18:42:52.428Z,21.23
2023-03-13T18:45:26.647Z,16.53
2023-03-13T18:47:54.947Z,14.53
2023-03-13T18:50:28.806Z,17.07
2023-03-13T18:52:59.111Z,11.77
2023-03-13T18:55:29.320Z,14.30
2023-03-13T18:57:57.648Z,14.83
2023-03-13T19:00:31.014Z,19.10
2023-03-13T19:02:59.026Z,14.10
2023-03-13T19:05:26.615Z,19.77
2023-03-13T19:07:54.828Z,18.73
2023-03-13T19:10:28.453Z,22.40
2023-03-13T19:12:57.053Z,21.17
2023-03-13T19:15:27.919Z,24.40
2023-03-13T19:18:01.027Z,19.40
2023-03-13T19:20:29.388Z,17.33
2023-03-13T19:23:00.874Z,18.87
2023-03-13T19:25:29.467Z,20.77
2023-03-13T19:27:57.248Z,18.53
2023-03-13T19:30:26.013Z,15.23
2023-03-13T19:32:53.660Z,16.97
2023-03-13T19:35:22.181Z,15.63
2023-03-13T19:37:50.465Z,14.90
2023-03-13T19:40:21.764Z,17.77
2023-03-13T19:42:49.698Z,17.23
2023-03-13T19:45:17.804Z,18.10
2023-03-13T19:47:45.832Z,16.27
2023-03-13T19:50:22.826Z,20.00
2023-03-13T19:52:50.697Z,21.50
2023-03-13T19:55:18.170Z,18.43
2023-03-13T19:57:45.801Z,21.40
2023-03-13T20:00:21.260Z,23.90
2023-03-13T20:02:49.723Z,19.63
2023-03-13T20:05:17.640Z,18.90
2023-03-13T20:07:46.732Z,18.40
2023-03-13T20:10:14.554Z,20.17
2023-03-13T20:12:42.330Z,18.10
2023-03-13T20:15:10.699Z,19.33
2023-03-13T20:17:38.449Z,19.07
2023-03-13T20:20:08.453Z,19.97
2023-03-13T20:22:36.084Z,19.00
2023-03-13T20:25:03.746Z,18.00
2023-03-13T20:27:31.452Z,14.97
2023-03-13T20:29:59.042Z,17.53
2023-03-13T20:32:28.363Z,16.20
2023-03-13T20:34:56.760Z,15.93
2023-03-13T20:37:24.507Z,14.13
2023-03-13T20:39:52.086Z,18.33
2023-03-13T20:42:20.995Z,13.70
2023-03-13T20:44:48.335Z,13.53
2023-03-13T20:47:16.083Z,15.27
2023-03-13T20:49:43.414Z,14.37
2023-03-13T20:52:11.071Z,17.00
2023-03-13T20:54:39.096Z,13.77
2023-03-13T20:57:08.720Z,18.57
2023-03-13T20:59:36.288Z,12.93
2023-03-13T21:02:04.169Z,16.47
2023-03-13T21:04:31.647Z,14.57
2023-03-13T21:07:04.551Z,14.30
2023-03-13T21:09:34.216Z,11.73
2023-03-13T21:12:02.160Z,14.30
2023-03-13T21:14:29.896Z,12.43
2023-03-13T21:16:57.616Z,16.20
2023-03-13T21:19:25.119Z,12.83
2023-03-13T21:21:53.018Z,16.23
2023-03-13T21:24:20.277Z,10.43
2023-03-13T21:26:48.036Z,13.97
2023-03-13T21:29:15.820Z,13.90
2023-03-13T21:31:43.915Z,12.40
2023-03-13T21:34:11.393Z,11.77
2023-03-13T21:36:39.031Z,15.90
2023-03-13T21:39:08.317Z,9.50
2023-03-13T21:41:36.178Z,13.30
2023-03-13T21:44:03.589Z,15.47
2023-03-13T21:46:33.456Z,11.00
2023-03-13T21:49:01.290Z,14.43
2023-03-13T21:51:29.434Z,12.50
2023-03-13T21:53:56.728Z,12.47
2023-03-13T21:56:24.310Z,10.57
2023-03-13T21:58:51.622Z,12.07
2023-03-13T22:01:19.198Z,11.97
2023-03-13T22:03:46.534Z,9.23
2023-03-13T22:06:19.660Z,13.17
2023-03-13T22:08:49.249Z,12.73
2023-03-13T22:11:17.522Z,11.00
2023-03-13T22:13:44.748Z,11.67
2023-03-13T22:16:12.431Z,10.70
2023-03-13T22:18:41.900Z,12.00
2023-03-13T22:21:09.663Z,12.13
2023-03-13T22:23:38.033Z,13.20
2023-03-13T22:26:06.783Z,12.03
2023-03-13T22:28:34.078Z,11.17
2023-03-13T22:31:02.792Z,13.23
2023-03-13T22:33:30.434Z,16.80
2023-03-13T22:35:58.071Z,9.27
2023-03-13T22:38:25.734Z,13.43
2023-03-13T22:41:05.093Z,12.53
2023-03-13T22:43:35.494Z,14.30
2023-03-13T22:46:04.661Z,8.67
2023-03-13T22:48:32.335Z,12.97
2023-03-13T22:51:10.815Z,11.57
2023-03-13T22:53:40.742Z,14.00
2023-03-13T22:56:12.632Z,7.93
2023-03-13T22:58:40.937Z,12.70
2023-03-13T23:01:14.660Z,9.97
2023-03-13T23:03:42.074Z,13.50
2023-03-13T23:06:16.068Z,11.47
2023-03-13T23:08:43.997Z,12.10
2023-03-13T23:11:12.177Z,10.93
2023-03-13T23:13:39.592Z,7.77
2023-03-13T23:16:09.200Z,9.13
2023-03-13T23:18:37.980Z,9.43
2023-03-13T23:21:08.254Z,11.87
2023-03-13T23:23:35.690Z,12.33
2023-03-13T23:26:05.189Z,11.30
2023-03-13T23:28:33.392Z,9.37
2023-03-13T23:31:01.078Z,9.93
2023-03-13T23:33:29.216Z,12.97
2023-03-13T23:35:56.704Z,13.50
2023-03-13T23:38:25.493Z,8.47
2023-03-13T23:40:53.235Z,8.03
2023-03-13T23:43:20.442Z,10.37
2023-03-13T23:45:47.892Z,10.03
2023-03-13T23:48:15.187Z,11.37
2023-03-13T23:50:42.696Z,9.27
2023-03-13T23:53:09.937Z,12.43
2023-03-13T23:55:37.424Z,10.13
2023-03-13T23:58:04.588Z,7.60
